Time;durP1;ratioP1;P1;durP2;ratioP2;P2;SDS_P1;SDS_P2;PMS_P1;PMS_P2;Temp;Humidity;BMP_temperature;BMP_pressure;BME280_temperature;BME280_humidity;BME280_pressure;Samples;Min_cycle;Max_cycle;Signal;HPM_P1;HPM_P2
2023/12/03 05:00:38;;;;;;;;;;;-2.20;97.30;;;;;;5907306;23;20045;-87
2023/12/03 05:03:04;;;;;;;;;;;-2.10;97.30;;;;;;4919287;29;20327;-87
2023/12/03 05:05:29;;;;;;;;;;;-2.10;97.30;;;;;;4919642;29;19966;-88
2023/12/03 05:07:55;;;;;;;;;;;-2.10;97.30;;;;;;4919901;29;19938;-88
2023/12/03 05:10:20;;;;;;;;;;;-2.20;97.30;;;;;;4909749;29;20287;-88
2023/12/03 05:12:46;;;;;;;;;;;-2.20;97.30;;;;;;4913052;29;20368;-88
2023/12/03 05:15:11;;;;;;;;;;;-2.10;97.30;;;;;;4914240;29;19911;-88
2023/12/03 05:17:36;;;;;;;;;;;-2.10;97.30;;;;;;4915679;29;19919;-88
2023/12/03 05:20:03;;;;;;;;;;;-2.10;97.30;;;;;;4912698;29;19913;-88
2023/12/03 05:22:28;;;;;;;;;;;-2.10;97.30;;;;;;4912511;29;19907;-88
2023/12/03 05:24:53;;;;;;;;;;;-2.10;97.30;;;;;;4916247;29;19911;-88
2023/12/03 05:27:19;;;;;;;;;;;-2.00;97.30;;;;;;4916037;29;19907;-88
2023/12/03 05:29:45;;;;;;;;;;;-2.00;97.30;;;;;;4915743;29;19917;-87
2023/12/03 05:32:10;;;;;;;;;;;-2.00;97.30;;;;;;4918392;29;19911;-88
2023/12/03 05:34:36;;;;;;;;;;;-2.00;97.30;;;;;;4916095;29;19907;-88
2023/12/03 05:37:01;;;;;;;;;;;-2.00;97.30;;;;;;4917842;29;19914;-87
2023/12/03 05:39:27;;;;;;;;;;;-2.00;97.30;;;;;;4924268;29;20096;-88
2023/12/03 05:41:52;;;;;;;;;;;-2.00;97.30;;;;;;4918818;29;20275;-88
2023/12/03 05:44:18;;;;;;;;;;;-2.00;97.30;;;;;;4902557;29;19950;-89
2023/12/03 05:46:43;;;;;;;;;;;-2.00;97.30;;;;;;4920921;29;19911;-88
2023/12/03 05:49:09;;;;;;;;;;;-1.90;97.30;;;;;;4917482;29;19911;-88
2023/12/03 05:51:34;;;;;;;;;;;-1.90;97.30;;;;;;4918956;29;19915;-88
2023/12/03 05:54:00;;;;;;;;;;;-1.90;97.30;;;;;;4916464;29;19919;-88
2023/12/03 05:56:25;;;;;;;;;;;-2.00;97.30;;;;;;4903387;29;19911;-88
2023/12/03 05:58:51;;;;;;;;;;;-1.90;97.30;;;;;;4919821;29;19997;-88
2023/12/03 06:01:23;;;;;;;;;;;-1.90;97.30;;;;;;4916001;29;20315;-88
2023/12/03 06:03:48;;;;;;;;;;;-1.90;97.30;;;;;;4918216;29;20327;-87
2023/12/03 06:06:14;;;;;;;;;;;-1.90;97.30;;;;;;4899779;29;20058;-88
2023/12/03 06:08:40;;;;;;;;;;;-1.90;97.30;;;;;;4919852;29;19930;-88
2023/12/03 06:11:05;;;;;;;;;;;-1.90;97.30;;;;;;4920647;29;19915;-88
2023/12/03 06:13:31;;;;;;;;;;;-1.90;97.30;;;;;;4906921;29;19917;-87
2023/12/03 06:15:56;;;;;;;;;;;-1.90;97.30;;;;;;4914040;29;20369;-88
2023/12/03 06:18:22;;;;;;;;;;;-1.90;97.30;;;;;;4945747;29;19911;-89
2023/12/03 06:20:47;;;;;;;;;;;-1.90;97.30;;;;;;4944948;28;19899;-89
2023/12/03 06:23:13;;;;;;;;;;;-1.90;97.30;;;;;;4926239;29;19911;-88
2023/12/03 06:25:38;;;;;;;;;;;-1.90;97.30;;;;;;4920171;29;19921;-88
2023/12/03 06:28:03;;;;;;;;;;;-1.90;97.30;;;;;;4919667;29;19907;-86
2023/12/03 06:30:29;;;;;;;;;;;-1.90;97.30;;;;;;4919209;29;20343;-88
2023/12/03 06:32:55;;;;;;;;;;;-1.90;97.30;;;;;;4915537;29;20383;-88
2023/12/03 06:35:20;;;;;;;;;;;-1.90;97.30;;;;;;4925865;29;19931;-88
2023/12/03 06:37:45;;;;;;;;;;;-1.90;97.30;;;;;;4921784;29;19914;-90
2023/12/03 06:40:11;;;;;;;;;;;-1.90;97.30;;;;;;4919378;29;19907;-90
2023/12/03 06:42:37;;;;;;;;;;;-1.90;97.30;;;;;;4921360;29;19918;-90
2023/12/03 06:45:02;;;;;;;;;;;-1.80;97.30;;;;;;4917864;29;20010;-90
2023/12/03 06:47:28;;;;;;;;;;;-1.80;97.30;;;;;;4920769;29;20379;-90
2023/12/03 06:49:53;;;;;;;;;;;-1.80;97.30;;;;;;4915393;29;19915;-90
2023/12/03 06:52:19;;;;;;;;;;;-1.80;97.30;;;;;;4917151;29;19915;-90
2023/12/03 06:54:44;;;;;;;;;;;-1.80;97.30;;;;;;4917708;29;19965;-90
2023/12/03 06:57:09;;;;;;;;;;;-1.80;97.30;;;;;;4915151;29;20018;-90
2023/12/03 06:59:35;;;;;;;;;;;-1.80;97.30;;;;;;4919417;29;19954;-87
2023/12/03 07:02:00;;;;;;;;;;;-1.70;97.30;;;;;;4918817;29;20442;-90
2023/12/03 07:04:26;;;;;;;;;;;-1.70;97.30;;;;;;4918144;29;20295;-90
2023/12/03 07:06:51;;;;;;;;;;;-1.70;97.30;;;;;;4917359;29;20295;-90
2023/12/03 07:09:16;;;;;;;;;;;-1.70;97.30;;;;;;4919249;29;19907;-90
2023/12/03 07:11:42;;;;;;;;;;;-1.70;97.30;;;;;;4919062;29;19966;-89
2023/12/03 07:14:07;;;;;;;;;;;-1.70;97.30;;;;;;4919070;29;20010;-90
2023/12/03 07:16:33;;;;;;;;;;;-1.70;97.30;;;;;;4915073;29;20001;-90
2023/12/03 07:18:58;;;;;;;;;;;-1.70;97.30;;;;;;4919083;29;19977;-90
2023/12/03 07:21:24;;;;;;;;;;;-1.70;97.30;;;;;;4921719;29;19914;-90
2023/12/03 07:23:49;;;;;;;;;;;-1.60;97.30;;;;;;4916171;29;19907;-89
2023/12/03 07:26:14;;;;;;;;;;;-1.60;97.30;;;;;;4919327;29;19911;-90
2023/12/03 07:28:41;;;;;;;;;;;-1.60;97.30;;;;;;4898749;29;19913;-90
2023/12/03 07:31:06;;;;;;;;;;;-1.60;97.30;;;;;;4919463;29;19907;-90
2023/12/03 07:33:32;;;;;;;;;;;-1.50;97.30;;;;;;4917629;29;19911;-89
2023/12/03 07:35:58;;;;;;;;;;;-1.50;97.30;;;;;;4919237;29;19915;-89
2023/12/03 07:38:23;;;;;;;;;;;-1.50;97.30;;;;;;4913201;29;19915;-90
2023/12/03 07:40:49;;;;;;;;;;;-1.50;97.30;;;;;;4918795;29;20009;-90
2023/12/03 07:43:14;;;;;;;;;;;-1.40;97.30;;;;;;4898413;29;20205;-90
2023/12/03 07:45:39;;;;;;;;;;;-1.40;97.30;;;;;;4918976;29;19958;-89
2023/12/03 07:48:05;;;;;;;;;;;-1.40;97.30;;;;;;4918942;29;19954;-89
2023/12/03 07:50:30;;;;;;;;;;;-1.40;97.30;;;;;;4922278;29;19965;-90
2023/12/03 07:52:56;;;;;;;;;;;-1.40;97.30;;;;;;4919540;29;19954;-90
2023/12/03 07:55:21;;;;;;;;;;;-1.40;97.30;;;;;;4914022;29;19907;-90
2023/12/03 07:57:47;;;;;;;;;;;-1.40;97.30;;;;;;4914188;29;19907;-90
2023/12/03 08:00:13;;;;;;;;;;;-1.30;97.30;;;;;;4919954;29;20284;-90
2023/12/03 08:02:38;;;;;;;;;;;-1.30;97.30;;;;;;4913718;29;20403;-90
2023/12/03 08:05:04;;;;;;;;;;;-1.30;97.30;;;;;;4914067;29;19907;-88
2023/12/03 08:07:29;;;;;;;;;;;-1.30;97.30;;;;;;4914090;29;19915;-90
2023/12/03 08:09:55;;;;;;;;;;;-1.30;97.30;;;;;;4897964;29;19915;-90
2023/12/03 08:12:20;;;;;;;;;;;-1.30;97.30;;;;;;4913749;29;19982;-90
2023/12/03 08:14:46;;;;;;;;;;;-1.30;97.30;;;;;;4913743;29;19914;-90
2023/12/03 08:17:12;;;;;;;;;;;-1.30;97.30;;;;;;4913961;29;19933;-89
2023/12/03 08:19:38;;;;;;;;;;;-1.20;97.30;;;;;;4918599;29;19919;-89
2023/12/03 08:22:04;;;;;;;;;;;-1.10;97.30;;;;;;4918473;29;19917;-87
2023/12/03 08:24:30;;;;;;;;;;;-1.10;97.30;;;;;;4922153;29;20438;-91
2023/12/03 08:26:55;;;;;;;;;;;-1.10;97.30;;;;;;4919892;29;19907;-90
2023/12/03 08:29:21;;;;;;;;;;;-1.00;97.30;;;;;;4913471;29;19915;-90
2023/12/03 08:31:46;;;;;;;;;;;-1.00;97.30;;;;;;4918580;29;19958;-90
2023/12/03 08:34:12;;;;;;;;;;;-1.00;97.30;;;;;;4919720;29;20386;-90
2023/12/03 08:36:37;;;;;;;;;;;-1.00;97.30;;;;;;4917243;29;20427;-87
2023/12/03 08:39:07;;;;;;;;;;;-1.00;97.30;;;;;;4923845;29;20007;-87
2023/12/03 08:41:34;;;;;;;;;;;-1.00;97.30;;;;;;4918173;29;19913;-88
2023/12/03 08:44:00;;;;;;;;;;;-1.00;97.30;;;;;;4919691;29;19945;-87
2023/12/03 08:46:26;;;;;;;;;;;-1.00;97.30;;;;;;4913068;29;20394;-88
2023/12/03 08:48:51;;;;;;;;;;;-1.00;97.30;;;;;;4912771;29;19907;-88
2023/12/03 08:51:17;;;;;;;;;;;-1.00;97.30;;;;;;4920273;29;19918;-88
2023/12/03 08:53:42;;;;;;;;;;;-0.90;97.30;;;;;;4915887;29;19914;-89
2023/12/03 08:56:12;;;;;;;;;;;-0.80;97.30;;;;;;4912302;29;20001;-88
2023/12/03 08:58:38;;;;;;;;;;;-0.60;97.30;;;;;;4913878;29;20363;-88
2023/12/03 09:01:04;;;;;;;;;;;-0.50;97.30;;;;;;4918637;29;19938;-87
2023/12/03 09:03:29;;;;;;;;;;;-0.40;97.30;;;;;;4913190;29;19911;-88
2023/12/03 09:05:54;;;;;;;;;;;-0.40;97.30;;;;;;4918241;29;19907;-88
2023/12/03 09:08:20;;;;;;;;;;;-0.30;97.30;;;;;;4912404;29;20290;-86
2023/12/03 09:10:45;;;;;;;;;;;-0.30;97.30;;;;;;4917250;29;20384;-88
2023/12/03 09:13:11;;;;;;;;;;;-0.30;97.30;;;;;;4912685;29;19919;-86
2023/12/03 09:15:36;;;;;;;;;;;-0.30;97.30;;;;;;4901011;29;19906;-88
2023/12/03 09:18:02;;;;;;;;;;;-0.30;97.30;;;;;;4913405;29;19911;-87
2023/12/03 09:20:27;;;;;;;;;;;-0.20;97.30;;;;;;4914017;29;19915;-87
2023/12/03 09:22:52;;;;;;;;;;;-0.20;97.30;;;;;;4913402;29;20351;-87
2023/12/03 09:25:18;;;;;;;;;;;0.70;97.30;;;;;;4924165;29;19915;-88
2023/12/03 09:27:43;;;;;;;;;;;0.90;97.30;;;;;;4899878;29;20347;-87
2023/12/03 09:30:10;;;;;;;;;;;0.30;97.30;;;;;;4919992;29;20438;-88
2023/12/03 09:32:36;;;;;;;;;;;0.00;97.30;;;;;;4907333;29;19915;-88
2023/12/03 09:35:01;;;;;;;;;;;-0.10;97.30;;;;;;4919610;29;20426;-87
2023/12/03 09:37:26;;;;;;;;;;;-0.10;97.30;;;;;;4918005;29;19911;-88
2023/12/03 09:39:52;;;;;;;;;;;-0.10;97.30;;;;;;4920952;29;19986;-88
2023/12/03 09:42:18;;;;;;;;;;;0.00;97.30;;;;;;4927167;29;20019;-88
2023/12/03 09:44:50;;;;;;;;;;;0.00;97.30;;;;;;4917698;29;20328;-88
2023/12/03 09:47:16;;;;;;;;;;;0.10;97.30;;;;;;4920754;29;20302;-88
2023/12/03 09:49:43;;;;;;;;;;;0.10;97.30;;;;;;4918734;29;19907;-88
2023/12/03 09:52:09;;;;;;;;;;;0.10;97.30;;;;;;4924544;29;19910;-88
2023/12/03 09:54:35;;;;;;;;;;;0.10;97.30;;;;;;4899564;29;19915;-88
2023/12/03 09:57:01;;;;;;;;;;;0.20;97.30;;;;;;4918984;29;19907;-88
2023/12/03 09:59:26;;;;;;;;;;;0.20;97.30;;;;;;4917583;29;19908;-88
2023/12/03 10:01:55;;;;;;;;;;;0.20;97.30;;;;;;4916583;29;19926;-87
2023/12/03 10:04:20;;;;;;;;;;;0.20;97.30;;;;;;4918216;29;19911;-86
2023/12/03 10:06:46;;;;;;;;;;;0.20;97.30;;;;;;4914816;29;19918;-87
2023/12/03 10:09:11;;;;;;;;;;;0.10;97.30;;;;;;4914381;29;19907;-87
2023/12/03 10:11:38;;;;;;;;;;;0.00;97.30;;;;;;4914077;29;19930;-88
2023/12/03 10:14:06;;;;;;;;;;;0.10;97.30;;;;;;4920842;29;20284;-88
2023/12/03 10:16:32;;;;;;;;;;;0.20;97.30;;;;;;4922925;29;19929;-88
2023/12/03 10:18:58;;;;;;;;;;;0.30;97.30;;;;;;4919326;29;19907;-88
2023/12/03 10:21:24;;;;;;;;;;;0.30;97.30;;;;;;4921941;29;20339;-88
2023/12/03 10:23:57;;;;;;;;;;;0.50;97.30;;;;;;4919642;29;20292;-88
2023/12/03 10:26:22;;;;;;;;;;;0.50;97.30;;;;;;4920538;29;19906;-88
2023/12/03 10:28:48;;;;;;;;;;;0.40;97.30;;;;;;4919053;29;19913;-88
2023/12/03 10:31:14;;;;;;;;;;;0.30;97.30;;;;;;4920938;29;19906;-87
2023/12/03 10:33:42;;;;;;;;;;;0.30;97.30;;;;;;4925706;29;19911;-88
2023/12/03 10:36:08;;;;;;;;;;;0.20;97.30;;;;;;4905421;29;19931;-88
2023/12/03 10:38:40;;;;;;;;;;;0.10;97.30;;;;;;4903566;29;19965;-88
2023/12/03 10:41:07;;;;;;;;;;;0.10;97.30;;;;;;4939769;28;19957;-88
2023/12/03 10:43:36;;;;;;;;;;;0.10;97.30;;;;;;4950016;28;19906;-89
2023/12/03 10:46:06;;;;;;;;;;;0.10;97.30;;;;;;4925361;29;19927;-89
2023/12/03 10:48:33;;;;;;;;;;;0.30;97.30;;;;;;4913178;29;19911;-89
2023/12/03 10:51:02;;;;;;;;;;;0.30;97.30;;;;;;4919829;29;19921;-88
2023/12/03 10:53:29;;;;;;;;;;;0.20;97.30;;;;;;4919972;29;19910;-88
2023/12/03 10:55:55;;;;;;;;;;;0.20;97.30;;;;;;4917656;29;20386;-87
2023/12/03 10:58:21;;;;;;;;;;;0.10;97.30;;;;;;4919108;29;19907;-88
2023/12/03 11:00:51;;;;;;;;;;;0.20;97.30;;;;;;4918103;29;19914;-88
2023/12/03 11:03:43;;;;;;;;;;;0.20;97.30;;;;;;4916724;29;19917;-88
2023/12/03 11:06:09;;;;;;;;;;;0.30;97.30;;;;;;4873789;29;20364;-89
2023/12/03 11:08:36;;;;;;;;;;;0.30;97.30;;;;;;4917211;29;19907;-88
2023/12/03 11:11:01;;;;;;;;;;;0.30;97.30;;;;;;4917754;29;19947;-88
2023/12/03 11:13:27;;;;;;;;;;;0.30;97.30;;;;;;4920494;29;20366;-88
2023/12/03 11:15:53;;;;;;;;;;;0.20;97.30;;;;;;4899441;29;19907;-88
2023/12/03 11:18:19;;;;;;;;;;;0.30;97.30;;;;;;4928098;29;19914;-88
2023/12/03 11:20:47;;;;;;;;;;;0.20;97.30;;;;;;4922072;29;19907;-89
2023/12/03 11:23:32;;;;;;;;;;;0.30;97.30;;;;;;4921681;29;20170;-90
2023/12/03 11:26:02;;;;;;;;;;;0.20;97.30;;;;;;4917783;29;19949;-89
2023/12/03 11:28:28;;;;;;;;;;;0.30;97.30;;;;;;4916545;29;20687;-89
2023/12/03 11:30:54;;;;;;;;;;;0.30;97.30;;;;;;4914912;29;19999;-89
2023/12/03 11:33:21;;;;;;;;;;;0.30;97.30;;;;;;4913926;29;19923;-87
2023/12/03 11:35:46;;;;;;;;;;;0.30;97.30;;;;;;4917824;29;20367;-88
2023/12/03 11:38:21;;;;;;;;;;;0.30;97.30;;;;;;4903239;29;19915;-88
2023/12/03 11:40:47;;;;;;;;;;;0.30;97.30;;;;;;4917983;29;19919;-89
2023/12/03 11:43:26;;;;;;;;;;;0.40;97.30;;;;;;4917909;29;19915;-88
2023/12/03 11:45:51;;;;;;;;;;;0.40;97.30;;;;;;4907841;29;20752;-87
2023/12/03 11:48:17;;;;;;;;;;;0.20;97.30;;;;;;4918449;29;19914;-89
2023/12/03 11:50:43;;;;;;;;;;;0.20;97.30;;;;;;4918098;29;19921;-87
2023/12/03 11:53:11;;;;;;;;;;;0.30;97.30;;;;;;4901630;29;19911;-88
2023/12/03 11:55:39;;;;;;;;;;;0.40;97.30;;;;;;4900937;29;19974;-86
2023/12/03 11:58:05;;;;;;;;;;;0.40;97.30;;;;;;4918551;29;19915;-86
2023/12/03 12:00:30;;;;;;;;;;;0.30;97.30;;;;;;4919313;29;19917;-89
2023/12/03 12:02:56;;;;;;;;;;;0.30;97.30;;;;;;4910684;29;19923;-87
2023/12/03 12:05:21;;;;;;;;;;;0.20;97.30;;;;;;4919879;29;20407;-89
2023/12/03 12:07:57;;;;;;;;;;;0.20;97.30;;;;;;4919038;29;19915;-87
2023/12/03 12:10:23;;;;;;;;;;;0.10;97.30;;;;;;4920699;29;19907;-87
2023/12/03 12:12:48;;;;;;;;;;;0.30;97.30;;;;;;4905292;29;19919;-88
2023/12/03 12:15:14;;;;;;;;;;;0.20;97.30;;;;;;4915329;29;20721;-88
2023/12/03 12:17:41;;;;;;;;;;;0.10;97.30;;;;;;4923646;29;20401;-89
2023/12/03 12:20:07;;;;;;;;;;;0.10;97.30;;;;;;4916883;29;19911;-89
2023/12/03 12:22:32;;;;;;;;;;;0.00;97.30;;;;;;4904310;29;19998;-90
2023/12/03 12:24:58;;;;;;;;;;;0.00;97.30;;;;;;4907302;29;19919;-89
2023/12/03 12:27:24;;;;;;;;;;;0.00;97.30;;;;;;4918105;29;19915;-88
2023/12/03 12:29:49;;;;;;;;;;;0.00;97.30;;;;;;4904616;29;19943;-89
2023/12/03 12:32:14;;;;;;;;;;;0.10;97.30;;;;;;4916756;29;19915;-89
2023/12/03 12:34:40;;;;;;;;;;;0.10;97.30;;;;;;4914363;29;20017;-88
2023/12/03 12:37:06;;;;;;;;;;;0.00;97.30;;;;;;4917968;29;19915;-88
2023/12/03 12:39:32;;;;;;;;;;;0.00;97.30;;;;;;4900327;29;19915;-91
2023/12/03 12:41:58;;;;;;;;;;;-0.10;97.30;;;;;;4907010;29;19919;-90
2023/12/03 12:44:39;;;;;;;;;;;0.00;97.30;;;;;;4901228;29;20391;-89
2023/12/03 12:47:06;;;;;;;;;;;0.00;97.30;;;;;;4905243;29;19911;-89
2023/12/03 12:49:32;;;;;;;;;;;-0.10;97.30;;;;;;4900822;29;20627;-88
2023/12/03 12:52:14;;;;;;;;;;;-0.10;97.30;;;;;;4900856;29;19974;-87
2023/12/03 12:54:43;;;;;;;;;;;0.00;97.30;;;;;;4905688;29;20055;-87
2023/12/03 12:57:09;;;;;;;;;;;0.00;97.30;;;;;;4916539;29;19925;-89
2023/12/03 12:59:34;;;;;;;;;;;0.00;97.30;;;;;;4921890;29;19919;-91
2023/12/03 13:02:00;;;;;;;;;;;-0.10;97.30;;;;;;4922663;29;20063;-90
2023/12/03 13:04:25;;;;;;;;;;;-0.10;97.30;;;;;;4904537;29;20383;-90
2023/12/03 13:06:51;;;;;;;;;;;-0.20;97.30;;;;;;4919349;29;19910;-89
2023/12/03 13:09:18;;;;;;;;;;;-0.10;97.30;;;;;;4901485;29;19919;-89
2023/12/03 13:11:43;;;;;;;;;;;-0.20;97.30;;;;;;4902614;29;19926;-89
2023/12/03 13:14:09;;;;;;;;;;;-0.10;97.30;;;;;;4898356;29;19907;-90
2023/12/03 13:16:34;;;;;;;;;;;-0.10;97.30;;;;;;4916803;29;19917;-90
2023/12/03 13:19:00;;;;;;;;;;;-0.10;97.30;;;;;;4905607;29;19907;-90
2023/12/03 13:21:25;;;;;;;;;;;-0.10;97.30;;;;;;4918636;29;19919;-90
2023/12/03 13:23:51;;;;;;;;;;;-0.10;97.30;;;;;;4920526;29;19914;-90
2023/12/03 13:26:16;;;;;;;;;;;0.00;97.30;;;;;;4916640;29;19926;-90
2023/12/03 13:28:43;;;;;;;;;;;0.00;97.30;;;;;;4907156;29;19915;-89
2023/12/03 13:31:08;;;;;;;;;;;0.10;97.30;;;;;;4906137;29;19919;-89
2023/12/03 13:33:34;;;;;;;;;;;0.20;97.30;;;;;;4908393;29;19922;-90
2023/12/03 13:35:59;;;;;;;;;;;0.20;97.30;;;;;;4917479;29;19911;-90
2023/12/03 13:38:24;;;;;;;;;;;0.10;97.30;;;;;;4916835;29;19998;-90
2023/12/03 13:40:50;;;;;;;;;;;0.20;97.30;;;;;;4901630;29;20052;-91
2023/12/03 13:43:15;;;;;;;;;;;0.20;97.30;;;;;;4917879;29;20002;-90
2023/12/03 13:45:41;;;;;;;;;;;0.10;97.30;;;;;;4915717;29;19959;-89
2023/12/03 13:48:06;;;;;;;;;;;0.10;97.30;;;;;;4915527;29;20014;-90
2023/12/03 13:50:34;;;;;;;;;;;0.10;97.30;;;;;;4901933;29;19967;-89
2023/12/03 13:52:59;;;;;;;;;;;0.10;97.30;;;;;;4917470;29;19923;-90
2023/12/03 13:55:25;;;;;;;;;;;0.10;97.30;;;;;;4905917;29;20635;-90
2023/12/03 13:57:50;;;;;;;;;;;0.10;97.30;;;;;;4922182;29;20426;-90
2023/12/03 14:00:16;;;;;;;;;;;0.10;97.30;;;;;;4918591;29;19965;-89
2023/12/03 14:02:41;;;;;;;;;;;0.10;97.30;;;;;;4919114;29;20043;-90
2023/12/03 14:05:08;;;;;;;;;;;0.00;97.30;;;;;;4908919;29;19931;-92
2023/12/03 14:07:33;;;;;;;;;;;0.10;97.30;;;;;;4919979;29;19922;-89
2023/12/03 14:09:59;;;;;;;;;;;0.10;97.30;;;;;;4919436;29;19918;-91
2023/12/03 14:12:24;;;;;;;;;;;0.10;97.30;;;;;;4921404;29;19919;-89
2023/12/03 14:14:50;;;;;;;;;;;0.10;97.30;;;;;;4927094;29;19948;-90
2023/12/03 14:17:15;;;;;;;;;;;0.10;97.30;;;;;;4917409;29;19919;-92
2023/12/03 14:19:40;;;;;;;;;;;0.10;97.30;;;;;;4901677;29;20302;-90
2023/12/03 14:22:06;;;;;;;;;;;0.10;97.30;;;;;;4895947;29;20039;-89
2023/12/03 14:24:32;;;;;;;;;;;0.10;97.30;;;;;;4917758;29;20005;-89
2023/12/03 14:26:57;;;;;;;;;;;0.10;97.30;;;;;;4913803;29;20721;-90
2023/12/03 14:29:23;;;;;;;;;;;0.10;97.30;;;;;;4900654;29;20033;-91
2023/12/03 14:31:48;;;;;;;;;;;0.00;97.30;;;;;;4896733;29;19914;-90
2023/12/03 14:34:13;;;;;;;;;;;0.00;97.30;;;;;;4913249;29;19915;-91
2023/12/03 14:36:43;;;;;;;;;;;0.00;97.30;;;;;;4904965;29;19914;-90
2023/12/03 14:39:11;;;;;;;;;;;0.00;97.30;;;;;;4897879;29;19914;-89
2023/12/03 14:41:37;;;;;;;;;;;0.00;97.30;;;;;;4911529;29;20759;-90
2023/12/03 14:44:03;;;;;;;;;;;0.00;97.30;;;;;;4914322;29;20371;-88
2023/12/03 14:46:30;;;;;;;;;;;0.00;97.30;;;;;;4917060;29;19990;-89
2023/12/03 14:48:56;;;;;;;;;;;0.00;97.30;;;;;;4899777;29;19919;-89
2023/12/03 14:51:22;;;;;;;;;;;0.00;97.30;;;;;;4914669;29;19911;-88
2023/12/03 14:53:48;;;;;;;;;;;0.00;97.30;;;;;;4897855;29;19926;-89
2023/12/03 14:56:24;;;;;;;;;;;0.60;97.30;;;;;;4911902;29;20009;-89
2023/12/03 14:58:50;;;;;;;;;;;0.60;97.30;;;;;;4908831;29;19906;-90
2023/12/03 15:01:19;;;;;;;;;;;0.40;97.30;;;;;;4910087;29;19922;-90
2023/12/03 15:03:45;;;;;;;;;;;0.20;97.30;;;;;;4921364;29;19929;-88
2023/12/03 15:06:10;;;;;;;;;;;0.10;97.30;;;;;;4919525;29;19907;-88
2023/12/03 15:08:36;;;;;;;;;;;0.00;97.30;;;;;;4920271;29;19910;-89
2023/12/03 15:11:02;;;;;;;;;;;-0.20;97.30;;;;;;4910634;29;19915;-89
2023/12/03 15:13:28;;;;;;;;;;;-0.20;97.30;;;;;;4910139;29;19922;-88
2023/12/03 15:15:53;;;;;;;;;;;-0.30;97.30;;;;;;4907207;29;19911;-89
2023/12/03 15:18:18;;;;;;;;;;;-0.40;97.30;;;;;;4920940;29;19969;-91
2023/12/03 15:20:44;;;;;;;;;;;-0.50;97.30;;;;;;4907405;29;19922;-92
2023/12/03 15:23:09;;;;;;;;;;;-0.50;97.30;;;;;;4904020;29;20159;-88
2023/12/03 15:25:35;;;;;;;;;;;-0.50;97.30;;;;;;4902719;29;19906;-91
2023/12/03 15:28:00;;;;;;;;;;;-0.50;97.30;;;;;;4923163;29;19918;-91
